createdAt,value
2023-01-13T00:00:25.010Z,100365.34
2023-01-13T00:02:52.308Z,100362.00
2023-01-13T00:05:19.766Z,100352.50
2023-01-13T00:07:48.963Z,100356.03
2023-01-13T00:10:16.616Z,100364.78
2023-01-13T00:12:44.556Z,100370.03
2023-01-13T00:15:12.231Z,100362.34
2023-01-13T00:17:39.575Z,100365.63
2023-01-13T00:20:07.881Z,100359.56
2023-01-13T00:22:35.832Z,100365.34
2023-01-13T00:25:04.680Z,100355.75
2023-01-13T00:27:32.628Z,100362.88
2023-01-13T00:30:00.090Z,100361.78
2023-01-13T00:32:28.685Z,100364.22
2023-01-13T00:34:55.910Z,100361.72
2023-01-13T00:37:23.731Z,100363.69
2023-01-13T00:39:54.102Z,100361.91
2023-01-13T00:42:40.109Z,100359.22
2023-01-13T00:45:07.906Z,100360.13
2023-01-13T00:47:35.027Z,100358.47
2023-01-13T00:50:02.447Z,100348.53
2023-01-13T00:52:29.658Z,100347.81
2023-01-13T00:54:57.337Z,100342.03
2023-01-13T00:57:24.603Z,100339.44
2023-01-13T00:59:51.847Z,100335.09
2023-01-13T01:02:19.068Z,100330.97
2023-01-13T01:04:46.392Z,100326.91
2023-01-13T01:07:14.253Z,100321.03
2023-01-13T01:09:41.403Z,100321.00
2023-01-13T01:12:08.755Z,100313.41
2023-01-13T01:14:35.976Z,100313.25
2023-01-13T01:17:03.566Z,100305.44
2023-01-13T01:19:31.235Z,100307.16
2023-01-13T01:21:58.535Z,100307.09
2023-01-13T01:24:25.855Z,100315.72
2023-01-13T01:26:53.062Z,100316.66
2023-01-13T01:29:20.153Z,100314.97
2023-01-13T01:31:47.455Z,100313.31
2023-01-13T01:34:14.647Z,100311.09
2023-01-13T01:36:41.795Z,100314.69
2023-01-13T01:39:11.109Z,100309.63
2023-01-13T01:41:38.597Z,100307.41
2023-01-13T01:44:28.757Z,100303.41
2023-01-13T01:46:57.055Z,100312.03
2023-01-13T01:49:32.728Z,100306.22
2023-01-13T01:52:09.485Z,100306.84
2023-01-13T01:54:44.539Z,100312.59
2023-01-13T01:57:15.562Z,100299.78
2023-01-13T01:59:43.483Z,100299.16
2023-01-13T02:02:11.366Z,100299.72
2023-01-13T02:04:41.273Z,100296.25
2023-01-13T02:07:08.892Z,100295.13
2023-01-13T02:09:37.050Z,100293.72
2023-01-13T02:12:23.332Z,100287.75
2023-01-13T02:14:50.481Z,100287.00
2023-01-13T02:17:34.865Z,100281.09
2023-01-13T02:20:35.091Z,100275.09
2023-01-13T02:23:42.420Z,100278.25
2023-01-13T02:26:21.602Z,100283.47
2023-01-13T02:29:27.399Z,100269.69
2023-01-13T02:32:04.585Z,100270.50
2023-01-13T02:34:47.259Z,100270.88
2023-01-13T02:37:26.362Z,100269.97
2023-01-13T02:40:14.803Z,100258.97
2023-01-13T02:43:14.712Z,100255.66
2023-01-13T02:45:52.631Z,100262.66
2023-01-13T02:48:23.314Z,100260.16
2023-01-13T02:51:19.516Z,100267.22
2023-01-13T02:53:54.540Z,100262.13
2023-01-13T02:56:24.761Z,100262.19
2023-01-13T02:58:56.765Z,100264.94
2023-01-13T03:01:24.707Z,100265.81
2023-01-13T03:03:52.066Z,100267.56
2023-01-13T03:06:43.441Z,100261.59
2023-01-13T03:09:22.172Z,100263.41
2023-01-13T03:12:15.562Z,100253.06
2023-01-13T03:14:54.388Z,100265.19
2023-01-13T03:17:40.905Z,100263.56
2023-01-13T03:20:13.627Z,100260.13
2023-01-13T03:22:41.371Z,100261.91
2023-01-13T03:25:15.944Z,100258.38
2023-01-13T03:27:48.495Z,100249.78
2023-01-13T03:30:23.718Z,100252.41
2023-01-13T03:32:54.034Z,100253.22
2023-01-13T03:35:26.329Z,100249.00
2023-01-13T03:38:17.202Z,100250.78
2023-01-13T03:40:54.950Z,100254.28
2023-01-13T03:43:48.712Z,100256.94
2023-01-13T03:46:44.813Z,100254.28
2023-01-13T03:49:17.537Z,100255.19
2023-01-13T03:51:48.333Z,100252.59
2023-01-13T03:54:18.183Z,100249.91
2023-01-13T03:56:54.934Z,100250.78
2023-01-13T03:59:27.361Z,100247.41
2023-01-13T04:02:07.551Z,100243.94
2023-01-13T04:04:37.708Z,100247.25
2023-01-13T04:07:20.742Z,100236.13
2023-01-13T04:09:52.510Z,100242.94
2023-01-13T04:12:22.965Z,100238.63
2023-01-13T04:14:51.577Z,100244.69
2023-01-13T04:17:21.210Z,100245.50
2023-01-13T04:19:49.854Z,100245.66
2023-01-13T04:22:17.157Z,100233.56
2023-01-13T04:24:44.643Z,100242.22
2023-01-13T04:27:13.701Z,100247.47
2023-01-13T04:29:40.915Z,100248.38
2023-01-13T04:32:08.215Z,100251.84
2023-01-13T04:34:35.533Z,100252.78
2023-01-13T04:37:02.525Z,100253.59
2023-01-13T04:39:29.983Z,100255.38
2023-01-13T04:42:00.227Z,100261.50
2023-01-13T04:44:27.959Z,100258.03
2023-01-13T04:46:55.406Z,100251.13
2023-01-13T04:52:11.223Z,100248.50
2023-01-13T04:54:40.344Z,100251.13
2023-01-13T04:57:07.408Z,100251.16
2023-01-13T04:59:34.975Z,100258.06
2023-01-13T05:02:02.757Z,100261.56
2023-01-13T05:04:30.314Z,100266.81
2023-01-13T05:06:59.086Z,100265.03
2023-01-13T05:09:26.253Z,100262.47
2023-01-13T05:12:11.861Z,100256.41
2023-01-13T05:14:57.521Z,100253.84
2023-01-13T05:17:26.298Z,100256.50
2023-01-13T05:19:53.420Z,100254.78
2023-01-13T05:22:39.350Z,100258.22
2023-01-13T05:25:22.130Z,100259.97
2023-01-13T05:27:50.331Z,100263.34
2023-01-13T05:30:18.430Z,100257.22
2023-01-13T05:32:46.275Z,100255.53
2023-01-13T05:35:17.067Z,100253.81
2023-01-13T05:37:47.211Z,100254.69
2023-01-13T05:40:36.941Z,100258.09
2023-01-13T05:43:26.171Z,100245.94
2023-01-13T05:46:02.544Z,100259.03
2023-01-13T05:48:40.254Z,100253.88
2023-01-13T05:51:14.559Z,100260.72
2023-01-13T05:53:42.401Z,100256.31
2023-01-13T05:56:16.296Z,100261.63
2023-01-13T05:58:48.077Z,100270.25
2023-01-13T06:01:17.118Z,100270.28
2023-01-13T06:03:46.532Z,100278.19
2023-01-13T06:06:15.176Z,100273.06
2023-01-13T06:08:45.224Z,100278.41
2023-01-13T06:11:14.414Z,100274.06
2023-01-13T06:13:43.302Z,100281.81
2023-01-13T06:16:12.944Z,100278.41
2023-01-13T06:18:44.885Z,100280.22
2023-01-13T06:21:14.015Z,100275.84
2023-01-13T06:23:44.483Z,100270.75
2023-01-13T06:26:21.864Z,100275.09
2023-01-13T06:28:51.205Z,100276.84
2023-01-13T06:31:20.905Z,100281.16
2023-01-13T06:33:59.544Z,100281.22
2023-01-13T06:36:32.739Z,100281.06
2023-01-13T06:39:03.301Z,100281.22
2023-01-13T06:41:53.420Z,100286.25
2023-01-13T06:44:24.605Z,100286.31
2023-01-13T06:46:53.703Z,100285.31
2023-01-13T06:49:22.396Z,100271.72
2023-01-13T06:51:54.799Z,100282.00
2023-01-13T06:54:22.566Z,100284.53
2023-01-13T06:56:51.230Z,100287.97
2023-01-13T06:59:19.860Z,100284.38
2023-01-13T07:01:47.652Z,100294.97
2023-01-13T07:04:17.419Z,100294.09
2023-01-13T07:06:46.124Z,100293.97
2023-01-13T07:09:15.488Z,100296.50
2023-01-13T07:11:44.646Z,100294.22
2023-01-13T07:14:32.096Z,100299.38
2023-01-13T07:17:00.693Z,100294.84
2023-01-13T07:19:28.881Z,100304.25
2023-01-13T07:21:57.525Z,100301.66
2023-01-13T07:24:26.530Z,100300.84
2023-01-13T07:26:55.833Z,100301.03
2023-01-13T07:29:26.084Z,100301.19
2023-01-13T07:31:54.539Z,100297.00
2023-01-13T07:34:24.358Z,100288.41
2023-01-13T07:36:52.964Z,100285.84
2023-01-13T07:39:24.306Z,100281.59
2023-01-13T07:42:10.688Z,100286.72
2023-01-13T07:44:39.544Z,100289.09
2023-01-13T07:47:11.179Z,100292.81
2023-01-13T07:49:41.553Z,100280.88
2023-01-13T07:52:12.692Z,100288.78
2023-01-13T07:54:41.442Z,100286.09
2023-01-13T07:57:12.400Z,100280.25
2023-01-13T07:59:41.325Z,100275.34
2023-01-13T08:02:14.557Z,100282.25
2023-01-13T08:04:43.733Z,100276.41
2023-01-13T08:07:12.619Z,100271.50
2023-01-13T08:09:41.322Z,100264.75
2023-01-13T08:12:27.521Z,100263.19
2023-01-13T08:14:57.155Z,100253.75
2023-01-13T08:17:26.263Z,100259.81
2023-01-13T08:19:54.921Z,100254.66
2023-01-13T08:22:23.774Z,100254.72
2023-01-13T08:24:51.809Z,100259.97
2023-01-13T08:27:20.720Z,100262.56
2023-01-13T08:29:49.661Z,100259.22
2023-01-13T08:32:18.084Z,100254.06
2023-01-13T08:34:46.382Z,100254.06
2023-01-13T08:37:14.387Z,100258.53
2023-01-13T08:39:43.526Z,100257.66
2023-01-13T08:42:12.202Z,100256.84
2023-01-13T08:44:39.762Z,100246.41
2023-01-13T08:47:07.670Z,100252.53
2023-01-13T08:49:38.031Z,100249.09
2023-01-13T08:52:06.047Z,100245.63
2023-01-13T08:54:33.811Z,100246.56
2023-01-13T08:57:03.826Z,100251.81
2023-01-13T08:59:33.092Z,100248.25
2023-01-13T09:02:04.845Z,100252.47
2023-01-13T09:04:33.778Z,100257.69
2023-01-13T09:07:03.852Z,100256.00
2023-01-13T09:09:32.056Z,100258.59
2023-01-13T09:12:18.275Z,100254.06
2023-01-13T09:14:46.583Z,100256.72
2023-01-13T09:17:15.443Z,100253.38
2023-01-13T09:19:44.975Z,100236.16
2023-01-13T09:22:19.508Z,100234.56
2023-01-13T09:24:48.652Z,100230.19
2023-01-13T09:27:16.691Z,100232.88
2023-01-13T09:29:44.200Z,100232.91
2023-01-13T09:32:14.410Z,100235.53
2023-01-13T09:35:02.068Z,100231.28
2023-01-13T09:37:37.508Z,100234.78
2023-01-13T09:40:15.878Z,100239.13
2023-01-13T09:43:13.901Z,100226.06
2023-01-13T09:45:51.905Z,100233.00
2023-01-13T09:48:26.007Z,100233.81
2023-01-13T09:51:26.100Z,100227.00
2023-01-13T09:54:03.413Z,100223.59
2023-01-13T09:56:32.716Z,100221.84
2023-01-13T09:59:01.813Z,100221.88
2023-01-13T10:01:39.669Z,100216.66
2023-01-13T10:04:17.296Z,100208.94
2023-01-13T10:06:54.066Z,100209.78
2023-01-13T10:09:31.519Z,100207.16
2023-01-13T10:12:21.283Z,100195.00
2023-01-13T10:14:56.276Z,100190.63
2023-01-13T10:17:30.091Z,100189.78
2023-01-13T10:20:25.869Z,100193.28
2023-01-13T10:23:06.128Z,100189.81
2023-01-13T10:25:46.495Z,100195.00
2023-01-13T10:28:19.749Z,100195.03
2023-01-13T10:30:49.132Z,100191.53
2023-01-13T10:33:30.255Z,100181.13
2023-01-13T10:36:02.619Z,100187.22
2023-01-13T10:38:43.280Z,100182.06
2023-01-13T10:41:18.084Z,100169.91
2023-01-13T10:43:59.807Z,100167.31
2023-01-13T10:46:30.144Z,100167.31
2023-01-13T10:49:25.906Z,100166.47
2023-01-13T10:51:54.935Z,100161.25
2023-01-13T10:54:25.814Z,100162.06
2023-01-13T10:57:21.392Z,100164.66
2023-01-13T10:59:54.883Z,100168.16
2023-01-13T11:02:43.988Z,100170.78
2023-01-13T11:05:26.902Z,100183.84
2023-01-13T11:07:58.682Z,100179.47
2023-01-13T11:10:33.603Z,100175.09
2023-01-13T11:13:16.580Z,100182.91
2023-01-13T11:15:48.547Z,100179.47
2023-01-13T11:18:33.992Z,100179.47
2023-01-13T11:21:09.667Z,100172.53
2023-01-13T11:23:47.768Z,100182.13
2023-01-13T11:26:25.531Z,100181.22
2023-01-13T11:29:30.675Z,100188.22
2023-01-13T11:32:15.172Z,100186.47
2023-01-13T11:34:49.497Z,100192.56
2023-01-13T11:37:31.529Z,100192.53
2023-01-13T11:40:14.228Z,100195.94
2023-01-13T11:43:00.510Z,100195.06
2023-01-13T11:45:53.958Z,100190.66
2023-01-13T11:48:27.746Z,100194.09
2023-01-13T11:50:59.709Z,100188.84
2023-01-13T11:54:01.882Z,100183.63
2023-01-13T11:56:29.810Z,100186.09
2023-01-13T11:59:16.740Z,100183.44
2023-01-13T12:02:14.371Z,100177.97
2023-01-13T12:05:05.003Z,100177.78
2023-01-13T12:07:53.775Z,100180.25
2023-01-13T12:10:45.370Z,100178.28
2023-01-13T12:13:38.074Z,100182.59
2023-01-13T12:16:30.684Z,100170.50
2023-01-13T12:19:01.120Z,100172.91
2023-01-13T12:21:38.372Z,100170.13
2023-01-13T12:24:21.137Z,100163.47
2023-01-13T12:27:08.558Z,100159.97
2023-01-13T12:29:38.396Z,100165.97
2023-01-13T12:32:14.033Z,100172.34
2023-01-13T12:35:20.798Z,100165.41
2023-01-13T12:38:12.114Z,100163.69
2023-01-13T12:41:00.977Z,100162.56
2023-01-13T12:43:48.288Z,100162.66
2023-01-13T12:46:25.456Z,100168.78
2023-01-13T12:48:57.743Z,100173.34
2023-01-13T12:51:57.351Z,100166.63
2023-01-13T12:54:31.549Z,100172.78
2023-01-13T12:57:00.568Z,100164.97
2023-01-13T12:59:27.856Z,100167.56
2023-01-13T13:02:16.076Z,100178.72
2023-01-13T13:04:53.142Z,100176.16
2023-01-13T13:07:42.738Z,100175.38
2023-01-13T13:10:24.983Z,100171.88
2023-01-13T13:13:19.405Z,100178.09
2023-01-13T13:15:52.044Z,100179.03
2023-01-13T13:18:24.188Z,100168.69
2023-01-13T13:21:05.628Z,100166.13
2023-01-13T13:24:01.826Z,100169.63
2023-01-13T13:26:36.870Z,100170.44
2023-01-13T13:29:34.002Z,100168.75
2023-01-13T13:32:07.628Z,100166.06
2023-01-13T13:34:52.578Z,100169.50
2023-01-13T13:38:20.686Z,100161.66
2023-01-13T13:41:07.578Z,100168.56
2023-01-13T13:44:03.710Z,100168.63
2023-01-13T13:46:47.918Z,100164.31
2023-01-13T13:49:18.175Z,100170.44
2023-01-13T13:52:09.367Z,100171.31
2023-01-13T13:54:45.834Z,100159.09
2023-01-13T13:57:18.227Z,100161.69
2023-01-13T13:59:55.391Z,100163.38
2023-01-13T14:02:31.651Z,100149.44
2023-01-13T14:05:22.974Z,100150.28
2023-01-13T14:08:00.714Z,100145.00
2023-01-13T14:10:38.271Z,100151.00
2023-01-13T14:13:21.370Z,100153.59
2023-01-13T14:15:51.864Z,100158.81
2023-01-13T14:18:21.921Z,100162.19
2023-01-13T14:20:56.366Z,100165.63
2023-01-13T14:23:28.579Z,100164.75
2023-01-13T14:26:01.391Z,100153.50
2023-01-13T14:28:39.875Z,100154.38
2023-01-13T14:31:10.333Z,100149.13
2023-01-13T14:33:45.861Z,100147.38
2023-01-13T14:36:36.586Z,100143.91
2023-01-13T14:39:04.523Z,100141.31
2023-01-13T14:41:47.580Z,100139.63
2023-01-13T14:44:15.041Z,100146.47
2023-01-13T14:46:45.363Z,100146.47
2023-01-13T14:49:21.868Z,100149.97
2023-01-13T14:51:49.303Z,100152.59
2023-01-13T14:54:45.975Z,100145.59
2023-01-13T14:57:15.719Z,100157.78
2023-01-13T15:00:05.373Z,100152.63
2023-01-13T15:02:34.639Z,100147.44
2023-01-13T15:05:17.386Z,100143.03
2023-01-13T15:08:03.471Z,100138.72
2023-01-13T15:10:41.813Z,100142.22
2023-01-13T15:13:35.784Z,100143.91
2023-01-13T15:16:25.364Z,100143.06
2023-01-13T15:18:54.511Z,100138.66
2023-01-13T15:21:22.199Z,100151.69
2023-01-13T15:23:49.631Z,100140.50
2023-01-13T15:26:21.078Z,100147.44
2023-01-13T15:28:49.123Z,100138.81
2023-01-13T15:31:16.288Z,100139.66
2023-01-13T15:33:43.602Z,100139.66
2023-01-13T15:36:23.618Z,100131.00
2023-01-13T15:38:51.217Z,100139.72
2023-01-13T15:41:38.631Z,100135.41
2023-01-13T15:44:24.481Z,100131.94
2023-01-13T15:46:52.132Z,100131.94
2023-01-13T15:49:19.213Z,100138.03
2023-01-13T15:51:46.648Z,100145.03
2023-01-13T15:54:14.206Z,100145.00
2023-01-13T15:56:42.213Z,100148.44
2023-01-13T15:59:18.177Z,100142.41
2023-01-13T16:01:46.244Z,100145.91
2023-01-13T16:04:13.702Z,100138.97
2023-01-13T16:06:41.406Z,100146.84
2023-01-13T16:09:12.805Z,100150.31
2023-01-13T16:11:40.221Z,100153.84
2023-01-13T16:14:07.293Z,100146.84
2023-01-13T16:16:35.929Z,100149.47
2023-01-13T16:19:04.267Z,100156.44
2023-01-13T16:21:31.475Z,100151.19
2023-01-13T16:23:58.778Z,100147.72
2023-01-13T16:26:30.163Z,100145.13
2023-01-13T16:28:58.501Z,100158.09
2023-01-13T16:31:34.402Z,100159.72
2023-01-13T16:34:03.728Z,100154.53
2023-01-13T16:36:34.578Z,100154.44
2023-01-13T16:39:02.675Z,100145.81
2023-01-13T16:41:30.034Z,100152.78
2023-01-13T16:43:57.209Z,100152.75
2023-01-13T16:46:29.475Z,100149.28
2023-01-13T16:49:02.024Z,100157.09
2023-01-13T16:51:29.256Z,100144.97
2023-01-13T16:53:56.602Z,100151.88
2023-01-13T16:56:32.428Z,100151.84
2023-01-13T16:59:03.753Z,100156.22
2023-01-13T17:01:33.383Z,100144.94
2023-01-13T17:04:01.268Z,100143.22
2023-01-13T17:06:30.841Z,100143.97
2023-01-13T17:09:18.740Z,100134.44
2023-01-13T17:11:46.247Z,100132.75
2023-01-13T17:14:18.983Z,100142.28
2023-01-13T17:16:47.183Z,100131.84
2023-01-13T17:19:14.940Z,100141.31
2023-01-13T17:21:42.452Z,100142.09
2023-01-13T17:24:10.781Z,100138.69
2023-01-13T17:26:42.501Z,100146.50
2023-01-13T17:29:29.811Z,100139.63
2023-01-13T17:31:56.900Z,100142.22
2023-01-13T17:34:24.123Z,100124.06
2023-01-13T17:36:51.338Z,100141.38
2023-01-13T17:39:24.533Z,100129.25
2023-01-13T17:41:53.738Z,100134.47
2023-01-13T17:44:22.665Z,100131.84
2023-01-13T17:46:50.113Z,100126.66
2023-01-13T17:49:19.074Z,100133.66
2023-01-13T17:51:51.204Z,100132.81
2023-01-13T17:54:18.818Z,100127.63
2023-01-13T17:56:46.089Z,100128.53
2023-01-13T17:59:14.554Z,100134.59
2023-01-13T18:01:42.371Z,100130.19
2023-01-13T18:04:22.089Z,100125.00
2023-01-13T18:06:49.785Z,100133.72
2023-01-13T18:09:17.410Z,100128.53
2023-01-13T18:11:47.142Z,100129.34
2023-01-13T18:14:14.849Z,100131.97
2023-01-13T18:16:42.103Z,100123.34
2023-01-13T18:19:29.543Z,100125.81
2023-01-13T18:22:15.003Z,100124.97
2023-01-13T18:25:00.950Z,100138.88
2023-01-13T18:27:35.897Z,100136.19
2023-01-13T18:30:04.441Z,100139.66
2023-01-13T18:32:33.808Z,100137.91
2023-01-13T18:35:06.811Z,100134.44
2023-01-13T18:37:38.955Z,100129.19
2023-01-13T18:40:09.610Z,100128.31
2023-01-13T18:42:54.968Z,100132.69
2023-01-13T18:45:25.559Z,100129.25
2023-01-13T18:47:54.510Z,100128.38
2023-01-13T18:50:22.550Z,100129.25
2023-01-13T18:52:49.970Z,100120.59
2023-01-13T18:55:17.314Z,100114.53
2023-01-13T18:57:44.614Z,100115.34
2023-01-13T19:00:14.794Z,100113.66
2023-01-13T19:02:42.031Z,100119.72
2023-01-13T19:05:10.230Z,100122.31
2023-01-13T19:07:37.776Z,100125.72
2023-01-13T19:10:09.834Z,100123.13
2023-01-13T19:12:37.284Z,100121.41
2023-01-13T19:15:04.861Z,100130.06
2023-01-13T19:17:34.651Z,100127.50
2023-01-13T19:20:02.500Z,100135.28
2023-01-13T19:22:32.979Z,100135.28
2023-01-13T19:25:01.627Z,100130.88
2023-01-13T19:27:29.580Z,100129.19
2023-01-13T19:30:03.997Z,100123.09
2023-01-13T19:32:33.402Z,100125.66
2023-01-13T19:35:01.287Z,100118.78
2023-01-13T19:37:30.631Z,100124.84
2023-01-13T19:39:59.284Z,100133.47
2023-01-13T19:42:46.001Z,100133.47
2023-01-13T19:45:26.680Z,100130.06
2023-01-13T19:47:54.852Z,100129.22
2023-01-13T19:50:22.151Z,100134.44
2023-01-13T19:52:51.325Z,100133.59
2023-01-13T19:55:20.423Z,100129.25
2023-01-13T19:57:47.583Z,100129.19
2023-01-13T20:00:21.034Z,100117.97
2023-01-13T20:02:49.926Z,100125.72
2023-01-13T20:05:22.203Z,100125.72
2023-01-13T20:07:51.187Z,100127.41
2023-01-13T20:10:20.362Z,100128.25
2023-01-13T20:12:47.524Z,100128.31
2023-01-13T20:15:15.069Z,100124.84
2023-01-13T20:17:42.362Z,100120.47
2023-01-13T20:20:11.010Z,100129.94
2023-01-13T20:22:39.661Z,100129.13
2023-01-13T20:25:08.105Z,100129.13
2023-01-13T20:27:37.363Z,100135.16
2023-01-13T20:30:05.896Z,100129.94
2023-01-13T20:32:33.251Z,100129.13
2023-01-13T20:35:00.345Z,100130.81
2023-01-13T20:37:27.871Z,100126.41
2023-01-13T20:39:57.627Z,100133.44
2023-01-13T20:42:30.839Z,100140.28
2023-01-13T20:45:01.551Z,100136.91
2023-01-13T20:47:30.052Z,100142.97
2023-01-13T20:49:57.515Z,100142.13
2023-01-13T20:52:25.037Z,100145.63
2023-01-13T20:54:52.286Z,100150.84
2023-01-13T20:57:19.676Z,100151.63
2023-01-13T20:59:46.838Z,100157.75
2023-01-13T21:02:16.895Z,100156.00
2023-01-13T21:04:44.615Z,100160.31
2023-01-13T21:07:12.341Z,100158.53
2023-01-13T21:09:39.855Z,100161.13
2023-01-13T21:12:26.580Z,100159.44
2023-01-13T21:15:12.300Z,100169.75
2023-01-13T21:17:57.953Z,100162.00
2023-01-13T21:20:25.483Z,100155.97
2023-01-13T21:22:53.114Z,100162.84
2023-01-13T21:25:20.590Z,100159.38
2023-01-13T21:27:47.931Z,100154.19
2023-01-13T21:30:17.235Z,100155.06
2023-01-13T21:32:45.923Z,100145.59
2023-01-13T21:35:13.926Z,100136.06
2023-01-13T21:37:42.941Z,100141.22
2023-01-13T21:40:12.575Z,100139.44
2023-01-13T21:42:58.243Z,100135.13
2023-01-13T21:45:44.081Z,100136.03
2023-01-13T21:48:11.419Z,100139.50
2023-01-13T21:50:38.914Z,100140.34
2023-01-13T21:53:08.319Z,100138.66
2023-01-13T21:55:37.094Z,100137.84
2023-01-13T21:58:09.725Z,100139.50
2023-01-13T22:00:37.024Z,100137.81
2023-01-13T22:03:06.227Z,100138.59
2023-01-13T22:05:33.907Z,100136.88
2023-01-13T22:08:01.510Z,100136.00
2023-01-13T22:10:30.699Z,100132.47
2023-01-13T22:13:20.840Z,100139.47
2023-01-13T22:15:48.545Z,100127.38
2023-01-13T22:18:18.511Z,100128.25
2023-01-13T22:20:46.286Z,100122.09
2023-01-13T22:23:14.695Z,100128.22
2023-01-13T22:25:42.176Z,100132.56
2023-01-13T22:28:09.600Z,100130.78
2023-01-13T22:30:37.049Z,100125.63
2023-01-13T22:33:04.513Z,100133.44
2023-01-13T22:35:31.955Z,100122.09
2023-01-13T22:37:59.238Z,100131.72
2023-01-13T22:40:26.661Z,100132.44
2023-01-13T22:42:53.812Z,100130.63
2023-01-13T22:45:21.601Z,100135.88
2023-01-13T22:47:49.815Z,100128.97
2023-01-13T22:50:21.072Z,100125.56
2023-01-13T22:52:48.283Z,100129.91
2023-01-13T22:55:15.724Z,100133.34
2023-01-13T22:57:47.971Z,100117.78
2023-01-13T23:00:19.058Z,100123.03
2023-01-13T23:02:46.531Z,100122.13
2023-01-13T23:05:14.035Z,100122.13
2023-01-13T23:07:41.499Z,100127.31
2023-01-13T23:10:09.338Z,100120.47
2023-01-13T23:12:36.346Z,100120.47
2023-01-13T23:15:04.206Z,100122.13
2023-01-13T23:17:31.702Z,100124.78
2023-01-13T23:19:58.931Z,100131.72
2023-01-13T23:22:26.071Z,100127.38
2023-01-13T23:24:53.460Z,100131.72
2023-01-13T23:27:20.657Z,100124.78
2023-01-13T23:29:47.839Z,100129.91
2023-01-13T23:32:14.952Z,100125.63
2023-01-13T23:34:41.925Z,100121.25
2023-01-13T23:37:09.545Z,100120.44
2023-01-13T23:39:36.776Z,100117.81
2023-01-13T23:42:04.133Z,100103.03
2023-01-13T23:44:31.152Z,100113.44
2023-01-13T23:46:58.814Z,100111.69
2023-01-13T23:49:26.103Z,100112.66
2023-01-13T23:51:53.615Z,100114.34
2023-01-13T23:54:20.924Z,100120.47
2023-01-13T23:56:50.497Z,100112.63
2023-01-13T23:59:17.653Z,100108.22
